PWSweather.com
Personal Weather Stations
Station Observations
KCAPORTE1
Orchard Ridge, Porterville, CA 93257

Orchard RidgePorterville, CA 93257

Lat: 36.08890152, Lon: -119.05760193

Elevation: 415

Station Type: Davis Vantage Pro

http://weather.manyjourneys.com/

Latest ConditionsUpdated 4:10:01 AM PDT Thursday, Apr 24, 2014
Currently Today's Max Today's Min Today's Average
Temperature 48.8°F9.3°C 53.8°F12.1°C 48.8°F9.3°C 51.2°F10.7°C
Dew Point 41.5°F5.3°C 43.2°F6.2°C 41.4°F5.2°C 42.2°F5.7°C
Winds Calm Calm Calm WCalm W - Calm Calm
Wind Gusts -- -- - -
Humidity 76% 76% 65% 71%
Pressure 30.01 in1016.3 mb 30.02 in1016.6 mb 30.00 in1015.9 mb -
Hour Temp Dew Point Humidity Winds Wind Gusts Pressure Precip Precip Rate Daily Precip Total
04:10 AM 48.8°F9.3°C 41.5°F5.3°C 76% Calm Calm -- 30.01 in1016.3 mb 0.00 in0.0 mm 0.00 in/hr0.0 mm/hr 0.00 in0.0 mm
04:00 AM 49.2°F9.6°C 41.7°F5.4°C 75% Calm Calm -- 30.01 in1016.3 mb 0.00 in0.0 mm 0.00 in/hr0.0 mm/hr 0.00 in0.0 mm
03:50 AM 49.5°F9.7°C 41.6°F5.3°C 74% Calm Calm -- 30.01 in1016.3 mb 0.00 in0.0 mm 0.00 in/hr0.0 mm/hr 0.00 in0.0 mm
03:40 AM 49.6°F9.8°C 42.0°F5.6°C 75% Calm Calm -- 30.01 in1016.3 mb 0.00 in0.0 mm 0.00 in/hr0.0 mm/hr 0.00 in0.0 mm
03:30 AM 49.7°F9.8°C 41.4°F5.2°C 73% Calm Calm -- 30.01 in1016.3 mb 0.00 in0.0 mm 0.00 in/hr0.0 mm/hr 0.00 in0.0 mm
03:20 AM 49.9°F9.9°C 41.6°F5.3°C 73% Calm Calm -- 30.00 in1015.9 mb 0.00 in0.0 mm 0.00 in/hr0.0 mm/hr 0.00 in0.0 mm
03:10 AM 49.9°F9.9°C 41.6°F5.3°C 73% Calm Calm -- 30.00 in1015.9 mb 0.00 in0.0 mm 0.00 in/hr0.0 mm/hr 0.00 in0.0 mm
03:00 AM 49.5°F9.7°C 41.6°F5.3°C 74% Calm Calm -- 30.00 in1015.9 mb 0.00 in0.0 mm 0.00 in/hr0.0 mm/hr 0.00 in0.0 mm
02:50 AM 49.9°F9.9°C 41.6°F5.3°C 73% Calm Calm -- 30.01 in1016.3 mb 0.00 in0.0 mm 0.00 in/hr0.0 mm/hr 0.00 in0.0 mm
02:40 AM 50.3°F10.2°C 42.0°F5.6°C 73% Calm Calm -- 30.01 in1016.3 mb 0.00 in0.0 mm 0.00 in/hr0.0 mm/hr 0.00 in0.0 mm
02:30 AM 50.3°F10.2°C 42.0°F5.6°C 73% Calm Calm -- 30.01 in1016.3 mb 0.00 in0.0 mm 0.00 in/hr0.0 mm/hr 0.00 in0.0 mm
02:20 AM 50.7°F10.4°C 42.4°F5.8°C 73% Calm Calm -- 30.01 in1016.3 mb 0.00 in0.0 mm 0.00 in/hr0.0 mm/hr 0.00 in0.0 mm
02:10 AM 50.9°F10.5°C 41.8°F5.4°C 71% Calm Calm -- 30.02 in1016.6 mb 0.00 in0.0 mm 0.00 in/hr0.0 mm/hr 0.00 in0.0 mm
02:00 AM 51.0°F10.6°C 42.3°F5.7°C 72% Calm Calm -- 30.01 in1016.3 mb 0.00 in0.0 mm 0.00 in/hr0.0 mm/hr 0.00 in0.0 mm
01:50 AM 51.1°F10.6°C 42.0°F5.6°C 71% Calm Calm -- 30.01 in1016.3 mb 0.00 in0.0 mm 0.00 in/hr0.0 mm/hr 0.00 in0.0 mm
01:40 AM 51.5°F10.8°C 42.4°F5.8°C 71% Calm Calm -- 30.01 in1016.3 mb 0.00 in0.0 mm 0.00 in/hr0.0 mm/hr 0.00 in0.0 mm
01:30 AM 51.9°F11.1°C 42.4°F5.8°C 70% Calm Calm -- 30.01 in1016.3 mb 0.00 in0.0 mm 0.00 in/hr0.0 mm/hr 0.00 in0.0 mm
01:20 AM 52.3°F11.3°C 43.2°F6.2°C 71% Calm Calm -- 30.02 in1016.6 mb 0.00 in0.0 mm 0.00 in/hr0.0 mm/hr 0.00 in0.0 mm
01:10 AM 52.6°F11.4°C 43.1°F6.2°C 70% Calm Calm -- 30.02 in1016.6 mb 0.00 in0.0 mm 0.00 in/hr0.0 mm/hr 0.00 in0.0 mm
01:00 AM 52.7°F11.5°C 43.2°F6.2°C 70% Calm Calm -- 30.02 in1016.6 mb 0.00 in0.0 mm 0.00 in/hr0.0 mm/hr 0.00 in0.0 mm
12:50 AM 52.9°F11.6°C 42.6°F5.9°C 68% Calm Calm -- 30.02 in1016.6 mb 0.00 in0.0 mm 0.00 in/hr0.0 mm/hr 0.00 in0.0 mm
12:40 AM 53.1°F11.7°C 42.8°F6.0°C 68% Calm Calm -- 30.02 in1016.6 mb 0.00 in0.0 mm 0.00 in/hr0.0 mm/hr 0.00 in0.0 mm
12:30 AM 53.2°F11.8°C 42.5°F5.8°C 67% Calm Calm -- 30.01 in1016.3 mb 0.00 in0.0 mm 0.00 in/hr0.0 mm/hr 0.00 in0.0 mm
12:20 AM 53.4°F11.9°C 42.7°F5.9°C 67% Calm Calm -- 30.01 in1016.3 mb 0.00 in0.0 mm 0.00 in/hr0.0 mm/hr 0.00 in0.0 mm
12:10 AM 53.7°F12.1°C 42.2°F5.7°C 65% Calm Calm -- 30.01 in1016.3 mb 0.00 in0.0 mm 0.00 in/hr0.0 mm/hr 0.00 in0.0 mm
12:00 AM 53.8°F12.1°C 42.7°F5.9°C 66% Calm Calm -- 30.01 in1016.3 mb 0.00 in0.0 mm 0.00 in/hr0.0 mm/hr 0.00 in0.0 mm